sensor_id;sensor_type;location;lat;lon;timestamp;temperature;humidity
9730;DHT22;4904;49.152;11.004;2023-08-08T00:01:35;12.10;99.90
9730;DHT22;4904;49.152;11.004;2023-08-08T00:04:04;12.20;99.90
9730;DHT22;4904;49.152;11.004;2023-08-08T00:06:31;12.20;99.90
9730;DHT22;4904;49.152;11.004;2023-08-08T00:08:57;12.20;99.90
9730;DHT22;4904;49.152;11.004;2023-08-08T00:11:24;12.30;99.90
9730;DHT22;4904;49.152;11.004;2023-08-08T00:13:51;12.20;99.90
9730;DHT22;4904;49.152;11.004;2023-08-08T00:16:18;12.20;99.90
9730;DHT22;4904;49.152;11.004;2023-08-08T00:18:45;12.20;99.90
9730;DHT22;4904;49.152;11.004;2023-08-08T00:21:13;12.20;99.90
9730;DHT22;4904;49.152;11.004;2023-08-08T00:23:40;12.20;99.90
9730;DHT22;4904;49.152;11.004;2023-08-08T00:26:07;12.20;99.90
9730;DHT22;4904;49.152;11.004;2023-08-08T00:28:34;12.20;99.90
9730;DHT22;4904;49.152;11.004;2023-08-08T00:31:00;12.20;99.90
9730;DHT22;4904;49.152;11.004;2023-08-08T00:33:28;12.30;99.90
9730;DHT22;4904;49.152;11.004;2023-08-08T00:35:54;12.30;99.90
9730;DHT22;4904;49.152;11.004;2023-08-08T00:38:23;12.40;99.90
9730;DHT22;4904;49.152;11.004;2023-08-08T00:40:50;12.30;99.90
9730;DHT22;4904;49.152;11.004;2023-08-08T00:43:17;12.30;99.90
9730;DHT22;4904;49.152;11.004;2023-08-08T00:45:44;12.30;99.90
9730;DHT22;4904;49.152;11.004;2023-08-08T00:48:12;12.30;99.90
9730;DHT22;4904;49.152;11.004;2023-08-08T00:50:43;12.30;99.90
9730;DHT22;4904;49.152;11.004;2023-08-08T00:53:10;12.30;99.90
9730;DHT22;4904;49.152;11.004;2023-08-08T00:55:39;12.40;99.90
9730;DHT22;4904;49.152;11.004;2023-08-08T00:58:06;12.40;99.90
9730;DHT22;4904;49.152;11.004;2023-08-08T01:00:33;12.30;99.90
9730;DHT22;4904;49.152;11.004;2023-08-08T01:03:00;12.40;99.90
9730;DHT22;4904;49.152;11.004;2023-08-08T01:05:32;12.40;99.90
9730;DHT22;4904;49.152;11.004;2023-08-08T01:08:04;12.40;99.90
9730;DHT22;4904;49.152;11.004;2023-08-08T01:10:36;12.30;99.90
9730;DHT22;4904;49.152;11.004;2023-08-08T01:13:08;12.40;99.90
9730;DHT22;4904;49.152;11.004;2023-08-08T01:15:37;12.40;99.90
9730;DHT22;4904;49.152;11.004;2023-08-08T01:18:05;12.40;99.90
9730;DHT22;4904;49.152;11.004;2023-08-08T01:20:33;12.50;99.90
9730;DHT22;4904;49.152;11.004;2023-08-08T01:23:09;12.60;99.90
9730;DHT22;4904;49.152;11.004;2023-08-08T01:25:40;12.80;99.90
9730;DHT22;4904;49.152;11.004;2023-08-08T01:28:07;12.80;99.90
9730;DHT22;4904;49.152;11.004;2023-08-08T01:30:35;12.70;99.90
9730;DHT22;4904;49.152;11.004;2023-08-08T01:33:03;12.70;99.90
9730;DHT22;4904;49.152;11.004;2023-08-08T01:35:34;12.60;99.90
9730;DHT22;4904;49.152;11.004;2023-08-08T01:38:09;12.50;99.90
9730;DHT22;4904;49.152;11.004;2023-08-08T01:40:36;12.50;99.90
9730;DHT22;4904;49.152;11.004;2023-08-08T01:43:08;12.50;99.90
9730;DHT22;4904;49.152;11.004;2023-08-08T01:45:35;12.50;99.90
9730;DHT22;4904;49.152;11.004;2023-08-08T01:48:06;12.50;99.90
9730;DHT22;4904;49.152;11.004;2023-08-08T01:50:34;12.50;99.90
9730;DHT22;4904;49.152;11.004;2023-08-08T01:53:01;12.50;99.90
9730;DHT22;4904;49.152;11.004;2023-08-08T01:55:27;12.50;99.90
9730;DHT22;4904;49.152;11.004;2023-08-08T01:57:54;12.50;99.90
9730;DHT22;4904;49.152;11.004;2023-08-08T02:00:24;12.40;99.90
9730;DHT22;4904;49.152;11.004;2023-08-08T02:02:51;12.50;99.90
9730;DHT22;4904;49.152;11.004;2023-08-08T02:05:18;12.50;99.90
9730;DHT22;4904;49.152;11.004;2023-08-08T02:07:45;12.50;99.90
9730;DHT22;4904;49.152;11.004;2023-08-08T02:10:12;12.50;99.90
9730;DHT22;4904;49.152;11.004;2023-08-08T02:12:39;12.50;99.90
9730;DHT22;4904;49.152;11.004;2023-08-08T02:15:07;12.60;99.90
9730;DHT22;4904;49.152;11.004;2023-08-08T02:17:37;12.60;99.90
9730;DHT22;4904;49.152;11.004;2023-08-08T02:20:05;12.50;99.90
9730;DHT22;4904;49.152;11.004;2023-08-08T02:22:33;12.50;99.90
9730;DHT22;4904;49.152;11.004;2023-08-08T02:25:00;12.50;99.90
9730;DHT22;4904;49.152;11.004;2023-08-08T02:27:27;12.50;99.90
9730;DHT22;4904;49.152;11.004;2023-08-08T02:29:53;12.50;99.90
9730;DHT22;4904;49.152;11.004;2023-08-08T02:32:20;12.60;99.90
9730;DHT22;4904;49.152;11.004;2023-08-08T02:34:49;12.50;99.90
9730;DHT22;4904;49.152;11.004;2023-08-08T02:37:15;12.50;99.90
9730;DHT22;4904;49.152;11.004;2023-08-08T02:39:43;12.50;99.90
9730;DHT22;4904;49.152;11.004;2023-08-08T02:42:10;12.50;99.90
9730;DHT22;4904;49.152;11.004;2023-08-08T02:44:37;12.60;99.90
9730;DHT22;4904;49.152;11.004;2023-08-08T02:47:04;12.50;99.90
9730;DHT22;4904;49.152;11.004;2023-08-08T02:49:31;12.50;99.90
9730;DHT22;4904;49.152;11.004;2023-08-08T02:52:00;12.60;99.90
9730;DHT22;4904;49.152;11.004;2023-08-08T02:54:27;12.40;99.90
9730;DHT22;4904;49.152;11.004;2023-08-08T02:56:54;12.50;99.90
9730;DHT22;4904;49.152;11.004;2023-08-08T02:59:21;12.60;99.90
9730;DHT22;4904;49.152;11.004;2023-08-08T03:01:48;12.40;99.90
9730;DHT22;4904;49.152;11.004;2023-08-08T03:04:15;12.40;99.90
9730;DHT22;4904;49.152;11.004;2023-08-08T03:06:42;12.40;99.90
9730;DHT22;4904;49.152;11.004;2023-08-08T03:09:10;12.30;99.90
9730;DHT22;4904;49.152;11.004;2023-08-08T03:11:37;12.30;99.90
9730;DHT22;4904;49.152;11.004;2023-08-08T03:14:07;12.30;99.90
9730;DHT22;4904;49.152;11.004;2023-08-08T03:16:34;12.30;99.90
9730;DHT22;4904;49.152;11.004;2023-08-08T03:19:01;12.30;99.90
9730;DHT22;4904;49.152;11.004;2023-08-08T03:21:28;12.30;99.90
9730;DHT22;4904;49.152;11.004;2023-08-08T03:23:55;12.30;99.90
9730;DHT22;4904;49.152;11.004;2023-08-08T03:26:24;12.30;99.90
9730;DHT22;4904;49.152;11.004;2023-08-08T03:28:51;12.40;99.90
9730;DHT22;4904;49.152;11.004;2023-08-08T03:31:19;12.30;99.90
9730;DHT22;4904;49.152;11.004;2023-08-08T03:33:46;12.30;99.90
9730;DHT22;4904;49.152;11.004;2023-08-08T03:36:13;12.20;99.90
9730;DHT22;4904;49.152;11.004;2023-08-08T03:38:40;12.30;99.90
9730;DHT22;4904;49.152;11.004;2023-08-08T03:41:10;12.30;99.90
9730;DHT22;4904;49.152;11.004;2023-08-08T03:43:38;12.30;99.90
9730;DHT22;4904;49.152;11.004;2023-08-08T03:46:05;12.20;99.90
9730;DHT22;4904;49.152;11.004;2023-08-08T03:48:32;12.00;99.90
9730;DHT22;4904;49.152;11.004;2023-08-08T03:50:59;12.00;99.90
9730;DHT22;4904;49.152;11.004;2023-08-08T03:53:26;12.20;99.90
9730;DHT22;4904;49.152;11.004;2023-08-08T03:55:52;12.00;99.90
9730;DHT22;4904;49.152;11.004;2023-08-08T03:58:20;12.00;99.90
9730;DHT22;4904;49.152;11.004;2023-08-08T04:00:48;11.90;99.90
9730;DHT22;4904;49.152;11.004;2023-08-08T04:03:16;11.90;99.90
9730;DHT22;4904;49.152;11.004;2023-08-08T04:05:44;11.90;99.90
9730;DHT22;4904;49.152;11.004;2023-08-08T04:08:13;11.90;99.90
9730;DHT22;4904;49.152;11.004;2023-08-08T04:10:40;11.90;99.90
9730;DHT22;4904;49.152;11.004;2023-08-08T04:13:07;12.00;99.90
9730;DHT22;4904;49.152;11.004;2023-08-08T04:15:34;12.00;99.90
9730;DHT22;4904;49.152;11.004;2023-08-08T04:18:03;11.90;99.90
9730;DHT22;4904;49.152;11.004;2023-08-08T04:20:32;12.00;99.90
9730;DHT22;4904;49.152;11.004;2023-08-08T04:22:58;12.00;99.90
9730;DHT22;4904;49.152;11.004;2023-08-08T04:25:26;12.00;99.90
9730;DHT22;4904;49.152;11.004;2023-08-08T04:27:54;11.90;99.90
9730;DHT22;4904;49.152;11.004;2023-08-08T04:30:21;11.80;99.90
9730;DHT22;4904;49.152;11.004;2023-08-08T04:32:48;11.70;99.90
9730;DHT22;4904;49.152;11.004;2023-08-08T04:35:17;11.80;99.90
9730;DHT22;4904;49.152;11.004;2023-08-08T04:37:43;11.80;99.90
9730;DHT22;4904;49.152;11.004;2023-08-08T04:40:11;11.80;99.90
9730;DHT22;4904;49.152;11.004;2023-08-08T04:42:38;11.80;99.90
9730;DHT22;4904;49.152;11.004;2023-08-08T04:45:06;11.80;99.90
9730;DHT22;4904;49.152;11.004;2023-08-08T04:47:34;11.90;99.90
9730;DHT22;4904;49.152;11.004;2023-08-08T04:50:01;11.80;99.90
9730;DHT22;4904;49.152;11.004;2023-08-08T04:52:29;11.90;99.90
9730;DHT22;4904;49.152;11.004;2023-08-08T04:54:56;11.90;99.90
9730;DHT22;4904;49.152;11.004;2023-08-08T04:57:23;11.90;99.90
9730;DHT22;4904;49.152;11.004;2023-08-08T04:59:50;11.90;99.90
9730;DHT22;4904;49.152;11.004;2023-08-08T05:02:17;11.80;99.90
9730;DHT22;4904;49.152;11.004;2023-08-08T05:04:44;11.80;99.90
9730;DHT22;4904;49.152;11.004;2023-08-08T05:07:11;11.80;99.90
9730;DHT22;4904;49.152;11.004;2023-08-08T05:09:39;11.90;99.90
9730;DHT22;4904;49.152;11.004;2023-08-08T05:12:07;11.80;99.90
9730;DHT22;4904;49.152;11.004;2023-08-08T05:14:34;11.90;99.90
9730;DHT22;4904;49.152;11.004;2023-08-08T05:17:02;12.00;99.90
9730;DHT22;4904;49.152;11.004;2023-08-08T05:19:29;12.00;99.90
9730;DHT22;4904;49.152;11.004;2023-08-08T05:21:56;12.00;99.90
9730;DHT22;4904;49.152;11.004;2023-08-08T05:24:23;12.00;99.90
9730;DHT22;4904;49.152;11.004;2023-08-08T05:26:51;12.00;99.90
9730;DHT22;4904;49.152;11.004;2023-08-08T05:29:18;12.00;99.90
9730;DHT22;4904;49.152;11.004;2023-08-08T05:31:46;12.10;99.90
9730;DHT22;4904;49.152;11.004;2023-08-08T05:34:13;12.20;99.90
9730;DHT22;4904;49.152;11.004;2023-08-08T05:36:40;12.20;99.90
9730;DHT22;4904;49.152;11.004;2023-08-08T05:39:07;12.20;99.90
9730;DHT22;4904;49.152;11.004;2023-08-08T05:41:35;12.20;99.90
9730;DHT22;4904;49.152;11.004;2023-08-08T05:44:03;12.30;99.90
9730;DHT22;4904;49.152;11.004;2023-08-08T05:46:30;12.30;99.90
9730;DHT22;4904;49.152;11.004;2023-08-08T05:48:57;12.50;99.90
9730;DHT22;4904;49.152;11.004;2023-08-08T05:51:24;12.40;99.90
9730;DHT22;4904;49.152;11.004;2023-08-08T05:53:51;12.40;99.90
9730;DHT22;4904;49.152;11.004;2023-08-08T05:56:18;12.50;99.90
9730;DHT22;4904;49.152;11.004;2023-08-08T05:58:45;12.60;99.90
9730;DHT22;4904;49.152;11.004;2023-08-08T06:01:13;12.60;99.90
9730;DHT22;4904;49.152;11.004;2023-08-08T06:03:41;12.70;99.90
9730;DHT22;4904;49.152;11.004;2023-08-08T06:06:08;12.80;99.90
9730;DHT22;4904;49.152;11.004;2023-08-08T06:08:35;12.90;99.90
9730;DHT22;4904;49.152;11.004;2023-08-08T06:11:02;13.10;99.90
9730;DHT22;4904;49.152;11.004;2023-08-08T06:13:28;13.10;99.90
9730;DHT22;4904;49.152;11.004;2023-08-08T06:15:56;13.30;99.90
9730;DHT22;4904;49.152;11.004;2023-08-08T06:18:24;13.30;99.90
9730;DHT22;4904;49.152;11.004;2023-08-08T06:20:51;13.30;99.90
9730;DHT22;4904;49.152;11.004;2023-08-08T06:23:18;13.40;99.90
9730;DHT22;4904;49.152;11.004;2023-08-08T06:25:45;13.40;99.90
9730;DHT22;4904;49.152;11.004;2023-08-08T06:28:12;13.50;99.90
9730;DHT22;4904;49.152;11.004;2023-08-08T06:30:39;13.50;99.90
9730;DHT22;4904;49.152;11.004;2023-08-08T06:33:06;13.60;99.90
9730;DHT22;4904;49.152;11.004;2023-08-08T06:35:35;13.70;99.90
9730;DHT22;4904;49.152;11.004;2023-08-08T06:38:03;13.80;99.90
9730;DHT22;4904;49.152;11.004;2023-08-08T06:40:30;13.90;99.90
9730;DHT22;4904;49.152;11.004;2023-08-08T06:42:57;14.00;99.90
9730;DHT22;4904;49.152;11.004;2023-08-08T06:45:24;14.00;99.90
9730;DHT22;4904;49.152;11.004;2023-08-08T06:47:52;14.00;99.90
9730;DHT22;4904;49.152;11.004;2023-08-08T06:50:19;14.00;99.90
9730;DHT22;4904;49.152;11.004;2023-08-08T06:52:47;14.10;99.90
9730;DHT22;4904;49.152;11.004;2023-08-08T06:55:14;14.00;99.90
9730;DHT22;4904;49.152;11.004;2023-08-08T06:57:41;14.00;99.90
9730;DHT22;4904;49.152;11.004;2023-08-08T07:00:09;14.00;99.90
9730;DHT22;4904;49.152;11.004;2023-08-08T07:02:38;14.10;99.90
9730;DHT22;4904;49.152;11.004;2023-08-08T07:05:06;14.10;99.90
9730;DHT22;4904;49.152;11.004;2023-08-08T07:07:35;14.30;99.90
9730;DHT22;4904;49.152;11.004;2023-08-08T07:10:04;14.50;99.90
9730;DHT22;4904;49.152;11.004;2023-08-08T07:12:32;14.60;99.90
9730;DHT22;4904;49.152;11.004;2023-08-08T07:14:59;14.60;99.90
9730;DHT22;4904;49.152;11.004;2023-08-08T07:17:26;14.70;99.90
9730;DHT22;4904;49.152;11.004;2023-08-08T07:19:53;14.70;99.90
9730;DHT22;4904;49.152;11.004;2023-08-08T07:22:22;14.70;99.90
9730;DHT22;4904;49.152;11.004;2023-08-08T07:24:49;14.70;99.90
9730;DHT22;4904;49.152;11.004;2023-08-08T07:27:17;14.80;99.90
9730;DHT22;4904;49.152;11.004;2023-08-08T07:29:44;14.90;99.90
9730;DHT22;4904;49.152;11.004;2023-08-08T07:32:11;15.10;99.90
9730;DHT22;4904;49.152;11.004;2023-08-08T07:34:38;15.20;99.90
9730;DHT22;4904;49.152;11.004;2023-08-08T07:37:05;15.30;99.90
9730;DHT22;4904;49.152;11.004;2023-08-08T07:39:32;15.30;99.90
9730;DHT22;4904;49.152;11.004;2023-08-08T07:41:59;15.40;99.90
9730;DHT22;4904;49.152;11.004;2023-08-08T07:44:27;15.50;99.90
9730;DHT22;4904;49.152;11.004;2023-08-08T07:46:54;15.60;99.90
9730;DHT22;4904;49.152;11.004;2023-08-08T07:49:21;15.70;99.90
9730;DHT22;4904;49.152;11.004;2023-08-08T07:51:49;15.80;99.90
9730;DHT22;4904;49.152;11.004;2023-08-08T07:54:15;15.80;99.90
9730;DHT22;4904;49.152;11.004;2023-08-08T07:56:42;15.70;99.90
9730;DHT22;4904;49.152;11.004;2023-08-08T07:59:09;15.80;99.90
9730;DHT22;4904;49.152;11.004;2023-08-08T08:01:37;15.90;99.90
9730;DHT22;4904;49.152;11.004;2023-08-08T08:04:05;16.00;99.90
9730;DHT22;4904;49.152;11.004;2023-08-08T08:06:31;16.00;99.90
9730;DHT22;4904;49.152;11.004;2023-08-08T08:08:58;16.00;99.90
9730;DHT22;4904;49.152;11.004;2023-08-08T08:11:25;16.10;99.90
9730;DHT22;4904;49.152;11.004;2023-08-08T08:13:52;16.10;99.90
9730;DHT22;4904;49.152;11.004;2023-08-08T08:16:19;16.10;99.90
9730;DHT22;4904;49.152;11.004;2023-08-08T08:18:48;16.20;99.90
9730;DHT22;4904;49.152;11.004;2023-08-08T08:21:14;16.30;99.90
9730;DHT22;4904;49.152;11.004;2023-08-08T08:23:43;16.30;99.90
9730;DHT22;4904;49.152;11.004;2023-08-08T08:26:10;16.40;99.90
9730;DHT22;4904;49.152;11.004;2023-08-08T08:28:37;16.60;99.90
9730;DHT22;4904;49.152;11.004;2023-08-08T08:31:05;16.60;99.90
9730;DHT22;4904;49.152;11.004;2023-08-08T08:33:32;16.60;99.90
9730;DHT22;4904;49.152;11.004;2023-08-08T08:36:01;16.50;99.90
9730;DHT22;4904;49.152;11.004;2023-08-08T08:38:28;16.50;99.90
9730;DHT22;4904;49.152;11.004;2023-08-08T08:40:56;16.60;99.90
9730;DHT22;4904;49.152;11.004;2023-08-08T08:43:24;16.70;99.90
9730;DHT22;4904;49.152;11.004;2023-08-08T08:45:53;16.80;99.90
9730;DHT22;4904;49.152;11.004;2023-08-08T08:48:21;16.90;99.90
9730;DHT22;4904;49.152;11.004;2023-08-08T08:50:48;16.90;99.90
9730;DHT22;4904;49.152;11.004;2023-08-08T08:53:17;16.80;99.90
9730;DHT22;4904;49.152;11.004;2023-08-08T08:55:44;16.90;99.90
9730;DHT22;4904;49.152;11.004;2023-08-08T08:58:14;17.00;99.90
9730;DHT22;4904;49.152;11.004;2023-08-08T09:00:43;16.90;99.90
9730;DHT22;4904;49.152;11.004;2023-08-08T09:03:10;17.00;99.90
9730;DHT22;4904;49.152;11.004;2023-08-08T09:05:39;16.90;99.90
9730;DHT22;4904;49.152;11.004;2023-08-08T09:08:07;16.90;99.90
9730;DHT22;4904;49.152;11.004;2023-08-08T09:10:36;17.00;99.90
9730;DHT22;4904;49.152;11.004;2023-08-08T09:13:03;17.10;99.90
9730;DHT22;4904;49.152;11.004;2023-08-08T09:15:31;17.10;99.90
9730;DHT22;4904;49.152;11.004;2023-08-08T09:17:58;17.20;99.90
9730;DHT22;4904;49.152;11.004;2023-08-08T09:20:25;17.20;99.90
9730;DHT22;4904;49.152;11.004;2023-08-08T09:22:53;17.30;99.90
9730;DHT22;4904;49.152;11.004;2023-08-08T09:25:20;17.40;99.90
9730;DHT22;4904;49.152;11.004;2023-08-08T09:27:50;17.30;99.90
9730;DHT22;4904;49.152;11.004;2023-08-08T09:30:17;17.30;99.90
9730;DHT22;4904;49.152;11.004;2023-08-08T09:32:44;17.20;99.90
9730;DHT22;4904;49.152;11.004;2023-08-08T09:35:11;17.30;99.90
9730;DHT22;4904;49.152;11.004;2023-08-08T09:37:38;17.30;99.90
9730;DHT22;4904;49.152;11.004;2023-08-08T09:40:06;17.20;99.90
9730;DHT22;4904;49.152;11.004;2023-08-08T09:42:35;17.30;99.90
9730;DHT22;4904;49.152;11.004;2023-08-08T09:45:05;17.50;99.90
9730;DHT22;4904;49.152;11.004;2023-08-08T09:47:32;17.70;99.90
9730;DHT22;4904;49.152;11.004;2023-08-08T09:49:59;17.70;99.90
9730;DHT22;4904;49.152;11.004;2023-08-08T09:52:27;17.80;99.90
9730;DHT22;4904;49.152;11.004;2023-08-08T09:54:55;18.00;99.90
9730;DHT22;4904;49.152;11.004;2023-08-08T09:57:23;18.00;99.90
9730;DHT22;4904;49.152;11.004;2023-08-08T09:59:51;18.00;99.90
9730;DHT22;4904;49.152;11.004;2023-08-08T10:02:20;17.90;99.90
9730;DHT22;4904;49.152;11.004;2023-08-08T10:04:47;17.90;99.90
9730;DHT22;4904;49.152;11.004;2023-08-08T10:07:14;17.80;99.90
9730;DHT22;4904;49.152;11.004;2023-08-08T10:09:42;17.90;99.90
9730;DHT22;4904;49.152;11.004;2023-08-08T10:12:11;17.90;99.90
9730;DHT22;4904;49.152;11.004;2023-08-08T10:14:42;18.20;99.90
9730;DHT22;4904;49.152;11.004;2023-08-08T10:17:13;18.20;99.90
9730;DHT22;4904;49.152;11.004;2023-08-08T10:19:50;18.20;99.90
9730;DHT22;4904;49.152;11.004;2023-08-08T10:22:20;18.20;99.90
9730;DHT22;4904;49.152;11.004;2023-08-08T10:24:51;18.20;99.90
9730;DHT22;4904;49.152;11.004;2023-08-08T10:27:28;18.30;99.90
9730;DHT22;4904;49.152;11.004;2023-08-08T10:30:01;18.40;99.90
9730;DHT22;4904;49.152;11.004;2023-08-08T10:32:38;18.20;99.90
9730;DHT22;4904;49.152;11.004;2023-08-08T10:35:08;18.30;99.90
9730;DHT22;4904;49.152;11.004;2023-08-08T10:37:36;18.30;99.90
9730;DHT22;4904;49.152;11.004;2023-08-08T10:40:04;18.40;99.90
9730;DHT22;4904;49.152;11.004;2023-08-08T10:42:40;18.30;99.90
9730;DHT22;4904;49.152;11.004;2023-08-08T10:45:10;18.30;99.90
9730;DHT22;4904;49.152;11.004;2023-08-08T10:47:37;18.30;99.90
9730;DHT22;4904;49.152;11.004;2023-08-08T10:50:07;18.40;99.90
9730;DHT22;4904;49.152;11.004;2023-08-08T10:52:38;18.40;99.90
9730;DHT22;4904;49.152;11.004;2023-08-08T10:55:06;18.50;99.90
9730;DHT22;4904;49.152;11.004;2023-08-08T10:57:36;18.50;99.90
9730;DHT22;4904;49.152;11.004;2023-08-08T11:00:25;18.40;99.90
9730;DHT22;4904;49.152;11.004;2023-08-08T11:02:54;18.50;99.90
9730;DHT22;4904;49.152;11.004;2023-08-08T11:05:23;18.60;99.90
9730;DHT22;4904;49.152;11.004;2023-08-08T11:07:52;18.50;99.90
9730;DHT22;4904;49.152;11.004;2023-08-08T11:10:20;18.50;99.90
9730;DHT22;4904;49.152;11.004;2023-08-08T11:12:58;18.60;99.90
9730;DHT22;4904;49.152;11.004;2023-08-08T11:15:25;18.70;99.90
9730;DHT22;4904;49.152;11.004;2023-08-08T11:17:53;18.70;99.90
9730;DHT22;4904;49.152;11.004;2023-08-08T11:20:20;18.70;99.90
9730;DHT22;4904;49.152;11.004;2023-08-08T11:22:52;18.80;99.90
9730;DHT22;4904;49.152;11.004;2023-08-08T11:25:20;18.70;99.90
9730;DHT22;4904;49.152;11.004;2023-08-08T11:27:51;18.80;99.90
9730;DHT22;4904;49.152;11.004;2023-08-08T11:30:18;18.90;99.90
9730;DHT22;4904;49.152;11.004;2023-08-08T11:32:45;18.80;99.90
9730;DHT22;4904;49.152;11.004;2023-08-08T11:35:16;18.80;99.90
9730;DHT22;4904;49.152;11.004;2023-08-08T11:37:44;18.90;99.90
9730;DHT22;4904;49.152;11.004;2023-08-08T11:40:12;18.90;99.90
9730;DHT22;4904;49.152;11.004;2023-08-08T11:42:40;19.00;99.90
9730;DHT22;4904;49.152;11.004;2023-08-08T11:45:09;18.90;99.90
9730;DHT22;4904;49.152;11.004;2023-08-08T11:47:37;18.90;99.90
9730;DHT22;4904;49.152;11.004;2023-08-08T11:50:08;18.90;99.90
9730;DHT22;4904;49.152;11.004;2023-08-08T11:52:36;18.90;99.90
9730;DHT22;4904;49.152;11.004;2023-08-08T11:55:06;19.00;99.90
9730;DHT22;4904;49.152;11.004;2023-08-08T11:57:35;19.00;99.90
9730;DHT22;4904;49.152;11.004;2023-08-08T12:00:03;19.10;99.90
9730;DHT22;4904;49.152;11.004;2023-08-08T12:02:33;19.20;99.90
9730;DHT22;4904;49.152;11.004;2023-08-08T12:05:04;19.30;99.90
9730;DHT22;4904;49.152;11.004;2023-08-08T12:07:32;19.40;99.90
9730;DHT22;4904;49.152;11.004;2023-08-08T12:09:59;19.40;99.90
9730;DHT22;4904;49.152;11.004;2023-08-08T12:12:26;19.30;99.90
9730;DHT22;4904;49.152;11.004;2023-08-08T12:14:55;19.30;99.90
9730;DHT22;4904;49.152;11.004;2023-08-08T12:17:22;19.40;99.90
9730;DHT22;4904;49.152;11.004;2023-08-08T12:19:48;19.30;99.90
9730;DHT22;4904;49.152;11.004;2023-08-08T12:22:15;19.30;99.90
9730;DHT22;4904;49.152;11.004;2023-08-08T12:24:42;19.50;99.90
9730;DHT22;4904;49.152;11.004;2023-08-08T12:27:09;19.40;99.90
9730;DHT22;4904;49.152;11.004;2023-08-08T12:29:36;19.50;99.90
9730;DHT22;4904;49.152;11.004;2023-08-08T12:32:04;19.60;99.90
9730;DHT22;4904;49.152;11.004;2023-08-08T12:34:34;19.70;99.90
9730;DHT22;4904;49.152;11.004;2023-08-08T12:37:01;19.70;99.90
9730;DHT22;4904;49.152;11.004;2023-08-08T12:39:28;19.60;99.90
9730;DHT22;4904;49.152;11.004;2023-08-08T12:41:55;19.70;99.90
9730;DHT22;4904;49.152;11.004;2023-08-08T12:44:22;19.80;99.90
9730;DHT22;4904;49.152;11.004;2023-08-08T12:46:49;19.80;99.90
9730;DHT22;4904;49.152;11.004;2023-08-08T12:49:17;19.80;99.90
9730;DHT22;4904;49.152;11.004;2023-08-08T12:51:44;19.90;99.90
9730;DHT22;4904;49.152;11.004;2023-08-08T12:54:11;19.90;99.90
9730;DHT22;4904;49.152;11.004;2023-08-08T12:56:38;19.80;99.90
9730;DHT22;4904;49.152;11.004;2023-08-08T12:59:05;19.60;99.90
9730;DHT22;4904;49.152;11.004;2023-08-08T13:01:32;19.70;99.90
9730;DHT22;4904;49.152;11.004;2023-08-08T13:03:59;19.70;99.90
9730;DHT22;4904;49.152;11.004;2023-08-08T13:06:28;19.80;99.90
9730;DHT22;4904;49.152;11.004;2023-08-08T13:08:55;19.70;99.90
9730;DHT22;4904;49.152;11.004;2023-08-08T13:11:22;19.60;99.90
9730;DHT22;4904;49.152;11.004;2023-08-08T13:13:49;19.70;99.90
9730;DHT22;4904;49.152;11.004;2023-08-08T13:16:15;19.60;99.90
9730;DHT22;4904;49.152;11.004;2023-08-08T13:18:42;19.70;99.90
9730;DHT22;4904;49.152;11.004;2023-08-08T13:21:09;19.70;99.90
9730;DHT22;4904;49.152;11.004;2023-08-08T13:23:40;19.70;99.90
9730;DHT22;4904;49.152;11.004;2023-08-08T13:26:08;19.60;99.90
9730;DHT22;4904;49.152;11.004;2023-08-08T13:28:34;19.70;99.90
9730;DHT22;4904;49.152;11.004;2023-08-08T13:31:01;19.70;99.90
9730;DHT22;4904;49.152;11.004;2023-08-08T13:33:29;19.70;99.90
9730;DHT22;4904;49.152;11.004;2023-08-08T13:35:55;19.60;99.90
9730;DHT22;4904;49.152;11.004;2023-08-08T13:38:23;19.60;99.90
9730;DHT22;4904;49.152;11.004;2023-08-08T13:40:51;19.70;99.90
9730;DHT22;4904;49.152;11.004;2023-08-08T13:43:18;19.50;99.90
9730;DHT22;4904;49.152;11.004;2023-08-08T13:45:45;19.60;99.90
9730;DHT22;4904;49.152;11.004;2023-08-08T13:48:12;19.70;99.90
9730;DHT22;4904;49.152;11.004;2023-08-08T13:50:39;19.50;99.90
9730;DHT22;4904;49.152;11.004;2023-08-08T13:53:06;19.60;99.90
9730;DHT22;4904;49.152;11.004;2023-08-08T13:55:34;19.60;99.90
9730;DHT22;4904;49.152;11.004;2023-08-08T13:58:06;19.60;99.90
9730;DHT22;4904;49.152;11.004;2023-08-08T14:00:33;19.70;99.90
9730;DHT22;4904;49.152;11.004;2023-08-08T14:03:01;19.60;99.90
9730;DHT22;4904;49.152;11.004;2023-08-08T14:05:28;19.50;99.90
9730;DHT22;4904;49.152;11.004;2023-08-08T14:07:57;19.50;99.90
9730;DHT22;4904;49.152;11.004;2023-08-08T14:10:23;19.40;99.90
9730;DHT22;4904;49.152;11.004;2023-08-08T14:12:50;19.50;99.90
9730;DHT22;4904;49.152;11.004;2023-08-08T14:15:18;19.40;99.90
9730;DHT22;4904;49.152;11.004;2023-08-08T14:17:45;19.50;99.90
9730;DHT22;4904;49.152;11.004;2023-08-08T14:20:12;19.50;99.90
9730;DHT22;4904;49.152;11.004;2023-08-08T14:22:39;19.40;99.90
9730;DHT22;4904;49.152;11.004;2023-08-08T14:25:07;19.50;99.90
9730;DHT22;4904;49.152;11.004;2023-08-08T14:27:34;19.50;99.90
9730;DHT22;4904;49.152;11.004;2023-08-08T14:30:02;19.50;99.90
9730;DHT22;4904;49.152;11.004;2023-08-08T14:32:31;19.60;99.90
9730;DHT22;4904;49.152;11.004;2023-08-08T14:34:58;19.70;99.90
9730;DHT22;4904;49.152;11.004;2023-08-08T14:37:25;19.80;99.90
9730;DHT22;4904;49.152;11.004;2023-08-08T14:39:52;20.00;99.90
9730;DHT22;4904;49.152;11.004;2023-08-08T14:42:19;20.00;99.90
9730;DHT22;4904;49.152;11.004;2023-08-08T14:44:46;19.80;99.90
9730;DHT22;4904;49.152;11.004;2023-08-08T14:47:13;19.80;99.90
9730;DHT22;4904;49.152;11.004;2023-08-08T14:49:41;19.90;99.90
9730;DHT22;4904;49.152;11.004;2023-08-08T14:52:08;19.80;99.90
9730;DHT22;4904;49.152;11.004;2023-08-08T14:54:35;19.70;99.90
9730;DHT22;4904;49.152;11.004;2023-08-08T14:57:02;19.80;99.90
9730;DHT22;4904;49.152;11.004;2023-08-08T14:59:29;19.80;99.90
9730;DHT22;4904;49.152;11.004;2023-08-08T15:01:56;19.80;99.90
9730;DHT22;4904;49.152;11.004;2023-08-08T15:04:23;19.70;99.90
9730;DHT22;4904;49.152;11.004;2023-08-08T15:06:51;19.70;99.90
9730;DHT22;4904;49.152;11.004;2023-08-08T15:09:18;19.70;99.90
9730;DHT22;4904;49.152;11.004;2023-08-08T15:11:45;19.80;99.90
9730;DHT22;4904;49.152;11.004;2023-08-08T15:14:12;19.80;99.90
9730;DHT22;4904;49.152;11.004;2023-08-08T15:16:39;20.00;99.90
9730;DHT22;4904;49.152;11.004;2023-08-08T15:19:06;20.00;99.90
9730;DHT22;4904;49.152;11.004;2023-08-08T15:21:33;19.90;99.90
9730;DHT22;4904;49.152;11.004;2023-08-08T15:24:01;19.80;99.90
9730;DHT22;4904;49.152;11.004;2023-08-08T15:26:28;19.90;99.90
9730;DHT22;4904;49.152;11.004;2023-08-08T15:28:55;19.80;99.90
9730;DHT22;4904;49.152;11.004;2023-08-08T15:31:22;19.80;99.90
9730;DHT22;4904;49.152;11.004;2023-08-08T15:33:49;19.90;99.90
9730;DHT22;4904;49.152;11.004;2023-08-08T15:36:17;20.00;99.90
9730;DHT22;4904;49.152;11.004;2023-08-08T15:38:43;20.00;99.90
9730;DHT22;4904;49.152;11.004;2023-08-08T15:41:12;20.10;99.90
9730;DHT22;4904;49.152;11.004;2023-08-08T15:43:39;20.10;99.90
9730;DHT22;4904;49.152;11.004;2023-08-08T15:46:06;20.10;99.90
9730;DHT22;4904;49.152;11.004;2023-08-08T15:48:33;20.10;99.90